Time;durP1;ratioP1;P1;durP2;ratioP2;P2;SDS_P1;SDS_P2;PMS_P1;PMS_P2;Temp;Humidity;BMP_temperature;BMP_pressure;BME280_temperature;BME280_humidity;BME280_pressure;Samples;Min_cycle;Max_cycle;Signal;HPM_P1;HPM_P2
2021/06/19 00:01:19;;;;;;;18.55;8.43;;;24.90;99.90;;;;;;5072441;28;20501;-69
2021/06/19 00:03:45;;;;;;;20.88;8.25;;;24.90;99.90;;;;;;5072133;28;20097;-69
2021/06/19 00:06:10;;;;;;;12.95;7.80;;;24.70;99.90;;;;;;5073014;28;20025;-69
2021/06/19 00:08:36;;;;;;;13.38;7.40;;;24.60;99.90;;;;;;5088613;28;20111;-69
2021/06/19 00:11:02;;;;;;;20.20;7.78;;;24.50;99.90;;;;;;5072098;28;20033;-69
2021/06/19 00:13:28;;;;;;;17.73;7.53;;;24.60;99.90;;;;;;5073483;28;20472;-69
2021/06/19 00:15:53;;;;;;;13.68;7.10;;;24.60;99.90;;;;;;5088555;28;20037;-69
2021/06/19 00:18:20;;;;;;;15.63;7.30;;;24.60;99.90;;;;;;5071687;28;20474;-69
2021/06/19 00:20:45;;;;;;;15.05;7.60;;;24.60;99.90;;;;;;5072235;28;20339;-69
2021/06/19 00:23:12;;;;;;;18.42;7.22;;;24.70;99.90;;;;;;5072290;28;20078;-69
2021/06/19 00:25:37;;;;;;;16.15;7.18;;;24.60;99.90;;;;;;5073423;28;20017;-69
2021/06/19 00:28:03;;;;;;;15.15;7.57;;;24.70;99.90;;;;;;5073391;28;20481;-69
2021/06/19 00:30:29;;;;;;;14.50;7.30;;;24.60;99.90;;;;;;5073096;28;20036;-69
2021/06/19 00:32:54;;;;;;;15.98;7.43;;;24.60;99.90;;;;;;5071912;28;20050;-69
2021/06/19 00:35:20;;;;;;;15.80;7.68;;;24.50;99.90;;;;;;5071554;28;20025;-69
2021/06/19 00:37:48;;;;;;;16.02;7.60;;;24.50;99.90;;;;;;5054575;28;20045;-69
2021/06/19 00:40:15;;;;;;;13.18;7.93;;;24.60;99.90;;;;;;5073293;28;20113;-68
2021/06/19 00:42:50;;;;;;;14.25;7.45;;;24.50;99.90;;;;;;5072962;28;20081;-69
2021/06/19 00:45:16;;;;;;;13.77;7.78;;;24.40;99.90;;;;;;5074326;28;20040;-69
2021/06/19 00:47:41;;;;;;;20.00;7.80;;;24.30;99.90;;;;;;5076814;28;20433;-69
2021/06/19 00:50:08;;;;;;;19.50;8.25;;;24.20;99.90;;;;;;5075306;28;20024;-68
2021/06/19 00:52:34;;;;;;;20.10;7.90;;;24.10;99.90;;;;;;5076463;28;20024;-68
2021/06/19 00:54:59;;;;;;;14.25;7.80;;;24.10;99.90;;;;;;5075247;28;20399;-69
2021/06/19 00:57:25;;;;;;;16.38;8.20;;;24.20;99.90;;;;;;5076629;28;20033;-69
2021/06/19 00:59:51;;;;;;;16.10;8.38;;;24.00;99.90;;;;;;5075222;28;20028;-69
2021/06/19 01:02:16;;;;;;;16.00;7.88;;;24.00;99.90;;;;;;5076639;28;20017;-69
2021/06/19 01:04:42;;;;;;;14.75;8.02;;;23.90;99.90;;;;;;5076576;28;20153;-69
2021/06/19 01:07:07;;;;;;;19.63;8.38;;;23.80;99.90;;;;;;5075041;28;20056;-69
2021/06/19 01:09:33;;;;;;;13.88;8.20;;;23.70;99.90;;;;;;5057977;28;20032;-69
2021/06/19 01:11:59;;;;;;;18.00;8.32;;;23.80;99.90;;;;;;5074962;28;20025;-69
2021/06/19 01:14:25;;;;;;;18.10;7.45;;;23.60;99.90;;;;;;5076363;28;20509;-69
2021/06/19 01:16:51;;;;;;;14.85;8.60;;;23.50;99.90;;;;;;5076337;28;20031;-68
2021/06/19 01:19:16;;;;;;;19.65;8.98;;;23.50;99.90;;;;;;5076150;28;20021;-69
2021/06/19 01:21:42;;;;;;;14.90;8.13;;;23.40;99.90;;;;;;5075932;28;20028;-69
2021/06/19 01:24:13;;;;;;;13.85;8.05;;;23.40;99.90;;;;;;5091285;28;20534;-69
2021/06/19 01:26:39;;;;;;;14.68;8.20;;;23.20;99.90;;;;;;5091225;28;20020;-68
2021/06/19 01:29:05;;;;;;;13.05;8.02;;;23.10;99.90;;;;;;5091149;28;20089;-69
2021/06/19 01:31:32;;;;;;;14.45;8.00;;;22.90;99.90;;;;;;5074607;28;20086;-69
2021/06/19 01:33:58;;;;;;;17.45;9.23;;;22.80;99.90;;;;;;5075940;28;20052;-68
2021/06/19 01:36:24;;;;;;;19.60;9.88;;;22.60;99.90;;;;;;5057992;28;20075;-68
2021/06/19 01:38:53;;;;;;;15.23;9.63;;;22.50;99.90;;;;;;5073939;28;20052;-69
2021/06/19 01:41:24;;;;;;;14.63;8.98;;;22.40;99.90;;;;;;5090925;28;20111;-69
2021/06/19 01:43:57;;;;;;;14.93;8.80;;;22.30;99.90;;;;;;5090822;28;20028;-69
2021/06/19 01:46:23;;;;;;;;;;;22.20;99.90;;;;;;5057612;28;20359;-69
2021/06/19 01:48:48;;;;;;;18.48;9.30;;;22.10;99.90;;;;;;5074491;28;19954;-68
2021/06/19 01:51:14;;;;;;;18.27;9.07;;;22.00;99.90;;;;;;5090805;28;20453;-69
2021/06/19 01:53:41;;;;;;;19.42;9.88;;;21.90;99.90;;;;;;5075398;28;20509;-69
2021/06/19 01:56:08;;;;;;;16.67;9.13;;;21.90;99.90;;;;;;5074124;28;20028;-68
2021/06/19 01:58:34;;;;;;;15.57;9.07;;;21.80;99.90;;;;;;5075198;28;20024;-69
2021/06/19 02:01:01;;;;;;;14.15;9.57;;;21.80;99.90;;;;;;5075504;28;20370;-68
2021/06/19 02:03:27;;;;;;;21.20;11.75;;;21.80;99.90;;;;;;5056903;28;20506;-69
2021/06/19 02:05:52;;;;;;;14.55;11.23;;;21.70;99.90;;;;;;5073875;28;20052;-69
2021/06/19 02:08:19;;;;;;;17.13;9.45;;;21.60;99.90;;;;;;5073570;28;20025;-69
2021/06/19 02:10:45;;;;;;;15.75;9.90;;;21.60;99.90;;;;;;5073837;28;20052;-69
2021/06/19 02:13:11;;;;;;;17.13;9.32;;;21.60;99.90;;;;;;5074113;28;20573;-69
2021/06/19 02:15:38;;;;;;;22.35;9.43;;;21.60;99.90;;;;;;5074935;28;20031;-68
2021/06/19 02:18:04;;;;;;;13.88;9.25;;;21.50;99.90;;;;;;5074864;28;20466;-68
2021/06/19 02:20:30;;;;;;;18.38;9.98;;;21.50;99.90;;;;;;5074023;28;20027;-68
2021/06/19 02:22:57;;;;;;;18.70;10.10;;;21.50;99.90;;;;;;5074572;28;20020;-68
2021/06/19 02:25:27;;;;;;;15.10;9.00;;;21.40;99.90;;;;;;5073885;28;20013;-69
2021/06/19 02:27:57;;;;;;;17.50;10.80;;;21.30;99.90;;;;;;5075038;28;20028;-68
2021/06/19 02:30:25;;;;;;;15.55;9.82;;;21.30;99.90;;;;;;5074686;28;20028;-68
2021/06/19 02:32:53;;;;;;;13.48;9.65;;;21.20;99.90;;;;;;5056923;28;20032;-68
2021/06/19 02:35:22;;;;;;;16.45;9.68;;;21.20;99.90;;;;;;5074863;28;20454;-68
2021/06/19 02:37:48;;;;;;;17.52;9.10;;;21.20;99.90;;;;;;5074096;28;20049;-69
2021/06/19 02:40:14;;;;;;;14.70;9.23;;;21.20;99.90;;;;;;5073618;28;20043;-69
2021/06/19 02:42:40;;;;;;;17.42;9.18;;;21.30;99.90;;;;;;5073575;28;20028;-69
2021/06/19 02:45:11;;;;;;;16.88;9.82;;;21.20;99.90;;;;;;5089821;28;20377;-69
2021/06/19 02:47:39;;;;;;;12.77;9.35;;;21.10;99.90;;;;;;5073581;28;20435;-68
2021/06/19 02:50:06;;;;;;;17.10;9.13;;;21.10;99.90;;;;;;5074571;28;20108;-68
2021/06/19 02:52:32;;;;;;;19.95;9.75;;;21.10;99.90;;;;;;5056134;28;20028;-69
2021/06/19 02:54:58;;;;;;;14.85;8.93;;;21.00;99.90;;;;;;5073350;28;20028;-68
2021/06/19 02:57:23;;;;;;;17.70;9.82;;;21.00;99.90;;;;;;5074447;28;20032;-68
2021/06/19 02:59:49;;;;;;;15.48;9.48;;;20.90;99.90;;;;;;5089552;28;20024;-68
2021/06/19 03:02:14;;;;;;;12.27;8.85;;;20.90;99.90;;;;;;5074393;28;20063;-68
2021/06/19 03:04:40;;;;;;;17.48;9.63;;;20.90;99.90;;;;;;5074088;28;20064;-69
2021/06/19 03:07:05;;;;;;;15.82;9.20;;;20.80;99.90;;;;;;5074035;28;20048;-68
2021/06/19 03:09:31;;;;;;;17.42;9.18;;;20.80;99.90;;;;;;5072763;28;20067;-69
2021/06/19 03:11:56;;;;;;;15.02;9.48;;;20.80;99.90;;;;;;5090136;28;20135;-68
2021/06/19 03:14:22;;;;;;;18.25;8.25;;;20.80;99.90;;;;;;5074271;28;20513;-68
2021/06/19 03:16:48;;;;;;;12.43;7.80;;;20.80;99.90;;;;;;5074194;28;20107;-68
2021/06/19 03:19:13;;;;;;;11.00;7.20;;;20.80;99.90;;;;;;5089162;28;20055;-68
2021/06/19 03:21:42;;;;;;;12.05;7.70;;;20.80;99.90;;;;;;5074090;28;20461;-68
2021/06/19 03:24:08;;;;;;;17.45;7.88;;;20.80;99.90;;;;;;5073599;28;20073;-68
2021/06/19 03:26:33;;;;;;;12.63;7.07;;;20.80;99.90;;;;;;5073535;28;20111;-69
2021/06/19 03:28:59;;;;;;;11.10;6.65;;;20.80;99.90;;;;;;5072617;28;20064;-68
2021/06/19 03:31:26;;;;;;;10.80;7.15;;;20.90;99.90;;;;;;5072786;28;20107;-69
2021/06/19 03:33:51;;;;;;;13.88;7.18;;;20.90;99.90;;;;;;5072565;28;20021;-69
2021/06/19 03:36:17;;;;;;;9.95;6.72;;;20.90;99.90;;;;;;5074007;28;20039;-69
2021/06/19 03:38:42;;;;;;;8.63;6.70;;;20.90;99.90;;;;;;5073162;28;20508;-69
2021/06/19 03:41:08;;;;;;;12.82;6.90;;;20.90;99.90;;;;;;5072787;28;20099;-68
2021/06/19 03:43:33;;;;;;;12.88;6.70;;;21.00;99.90;;;;;;5073407;28;20067;-69
2021/06/19 03:45:59;;;;;;;8.93;6.07;;;21.00;99.90;;;;;;5073656;28;20374;-69
2021/06/19 03:48:25;;;;;;;13.60;6.13;;;21.10;99.90;;;;;;5088939;28;20536;-69
2021/06/19 03:50:50;;;;;;;16.52;6.68;;;21.20;99.90;;;;;;5073576;28;20489;-68
2021/06/19 03:53:16;;;;;;;12.60;5.90;;;21.30;99.90;;;;;;5072683;28;20021;-69
2021/06/19 03:55:42;;;;;;;11.80;5.40;;;21.50;99.90;;;;;;5073294;28;20108;-68
2021/06/19 03:58:08;;;;;;;10.38;5.40;;;21.70;99.90;;;;;;5073713;28;20028;-69
2021/06/19 04:00:33;;;;;;;8.10;5.20;;;21.80;99.90;;;;;;5072030;28;20029;-69
2021/06/19 04:03:00;;;;;;;10.00;5.82;;;21.90;99.90;;;;;;5072326;28;20020;-69
2021/06/19 04:05:25;;;;;;;10.82;5.00;;;22.00;99.90;;;;;;5072257;28;20025;-68
2021/06/19 04:07:51;;;;;;;11.57;5.13;;;22.00;99.90;;;;;;5072530;28;20108;-69
2021/06/19 04:10:17;;;;;;;6.70;4.32;;;22.10;99.90;;;;;;5073400;28;20369;-69
2021/06/19 04:12:43;;;;;;;8.82;4.57;;;22.30;99.90;;;;;;5055196;28;20078;-69
2021/06/19 04:15:11;;;;;;;7.47;4.32;;;22.40;99.90;;;;;;5088659;28;20028;-68
2021/06/19 04:17:37;;;;;;;8.40;4.22;;;22.50;99.90;;;;;;5073533;28;20027;-68
2021/06/19 04:20:05;;;;;;;6.10;3.85;;;22.80;99.90;;;;;;5074460;28;20012;-68
2021/06/19 04:22:31;;;;;;;4.70;3.50;;;22.90;99.90;;;;;;5075817;28;20016;-68
2021/06/19 04:24:56;;;;;;;7.45;3.42;;;22.80;99.90;;;;;;5092416;28;20065;-68
2021/06/19 04:27:22;;;;;;;6.93;3.60;;;22.80;99.90;;;;;;5075509;28;20154;-68
2021/06/19 04:29:48;;;;;;;5.30;3.25;;;22.80;99.90;;;;;;5076981;28;20032;-68
2021/06/19 04:32:15;;;;;;;6.75;3.70;;;22.90;99.90;;;;;;5077529;28;20044;-69
2021/06/19 04:34:42;;;;;;;7.13;3.40;;;23.50;99.90;;;;;;5092293;28;20044;-68
2021/06/19 04:37:10;;;;;;;6.15;3.15;;;23.80;99.90;;;;;;5076934;28;20393;-68
2021/06/19 04:39:39;;;;;;;5.47;2.85;;;24.00;99.90;;;;;;5092108;28;20081;-69
2021/06/19 04:42:08;;;;;;;6.53;3.58;;;24.60;99.90;;;;;;5076482;28;20095;-68
2021/06/19 04:45:06;;;;;;;5.30;2.53;;;25.40;99.90;;;;;;5077019;28;20044;-69
2021/06/19 04:47:24;;;;;;;3.60;2.65;;;25.80;99.90;;;;;;5076436;28;20099;-69
2021/06/19 04:49:50;;;;;;;3.80;2.22;;;26.40;99.90;;;;;;5076962;28;20016;-69
2021/06/19 04:52:15;;;;;;;4.18;2.40;;;26.50;99.90;;;;;;5075708;28;20017;-69
2021/06/19 04:54:41;;;;;;;2.78;2.30;;;26.70;99.90;;;;;;5075394;28;20373;-69
2021/06/19 04:57:07;;;;;;;3.38;2.25;;;27.00;99.90;;;;;;5075628;28;20025;-69
2021/06/19 04:59:35;;;;;;;4.20;2.30;;;26.50;99.90;;;;;;5092085;28;20020;-69
2021/06/19 05:02:01;;;;;;;3.85;1.90;;;26.30;99.90;;;;;;5076730;28;20052;-69
2021/06/19 05:04:27;;;;;;;3.97;2.40;;;26.70;99.90;;;;;;5075208;28;20024;-69
2021/06/19 05:06:52;;;;;;;6.05;2.28;;;27.10;99.90;;;;;;5076643;28;20032;-69
2021/06/19 05:09:18;;;;;;;3.22;2.17;;;27.70;99.90;;;;;;5074845;28;20385;-69
2021/06/19 05:11:43;;;;;;;2.80;2.10;;;27.90;99.90;;;;;;5075515;28;20123;-69
2021/06/19 05:14:09;;;;;;;2.83;2.30;;;28.00;99.90;;;;;;5076433;28;20029;-69
2021/06/19 05:16:34;;;;;;;4.03;2.20;;;28.00;99.90;;;;;;5075000;28;20036;-69
2021/06/19 05:19:00;;;;;;;3.25;2.15;;;27.90;99.90;;;;;;5091390;28;20078;-70
2021/06/19 05:21:26;;;;;;;5.35;2.17;;;27.70;99.90;;;;;;5074608;28;20525;-70
2021/06/19 05:23:51;;;;;;;6.43;2.22;;;28.10;99.90;;;;;;5076383;28;20029;-69
2021/06/19 05:26:17;;;;;;;2.25;1.80;;;28.80;99.90;;;;;;5074819;28;20024;-69
2021/06/19 05:28:43;;;;;;;4.93;2.00;;;28.60;99.90;;;;;;5076201;28;20511;-69
2021/06/19 05:31:08;;;;;;;3.55;1.60;;;27.50;99.90;;;;;;5090833;28;20028;-69
2021/06/19 05:33:34;;;;;;;1.80;1.40;;;26.80;99.90;;;;;;5057669;28;20450;-69
2021/06/19 05:35:59;;;;;;;3.45;1.70;;;27.20;99.90;;;;;;5075508;28;20569;-69
2021/06/19 05:38:25;;;;;;;2.95;1.48;;;27.60;99.90;;;;;;5076037;28;20044;-69
2021/06/19 05:40:51;;;;;;;3.78;1.48;;;27.40;99.90;;;;;;5091866;28;20063;-69
2021/06/19 05:43:16;;;;;;;3.85;1.30;;;27.30;99.90;;;;;;5074508;28;20099;-69
2021/06/19 05:45:42;;;;;;;1.88;1.10;;;27.70;99.90;;;;;;5090957;28;20028;-69
2021/06/19 05:48:08;;;;;;;1.23;1.10;;;27.40;99.90;;;;;;5090899;28;20035;-69
2021/06/19 05:50:33;;;;;;;4.32;1.30;;;27.70;99.90;;;;;;5074026;28;20027;-69
2021/06/19 05:52:59;;;;;;;5.72;1.40;;;28.00;99.90;;;;;;5075784;28;20024;-69
2021/06/19 05:55:24;;;;;;;3.20;1.25;;;27.70;99.90;;;;;;5073917;28;20370;-69
2021/06/19 05:57:50;;;;;;;4.22;1.70;;;27.50;99.90;;;;;;5075581;28;20033;-69
2021/06/19 06:00:16;;;;;;;2.05;1.35;;;27.30;99.90;;;;;;5074131;28;20466;-69
2021/06/19 06:02:42;;;;;;;2.25;1.10;;;27.10;99.90;;;;;;5073808;28;20174;-69
2021/06/19 06:05:10;;;;;;;4.97;1.38;;;27.90;99.90;;;;;;5090596;28;20056;-69
2021/06/19 06:07:35;;;;;;;3.03;1.48;;;27.60;99.90;;;;;;5074867;28;20020;-69
2021/06/19 06:10:02;;;;;;;1.75;1.30;;;27.70;99.90;;;;;;5074753;28;20020;-69
2021/06/19 06:12:28;;;;;;;5.95;1.50;;;27.90;99.90;;;;;;5075258;28;20021;-70
2021/06/19 06:14:54;;;;;;;1.42;1.02;;;27.90;99.90;;;;;;5073557;28;20033;-70
2021/06/19 06:17:19;;;;;;;2.47;1.20;;;27.80;99.90;;;;;;5075120;28;20073;-69
2021/06/19 06:19:45;;;;;;;5.10;1.65;;;27.60;99.90;;;;;;5075158;28;20021;-70
2021/06/19 06:22:10;;;;;;;3.60;1.40;;;28.10;99.90;;;;;;5074845;28;20017;-69
2021/06/19 06:24:36;;;;;;;2.30;1.30;;;29.00;99.90;;;;;;5074849;28;20024;-69
2021/06/19 06:27:02;;;;;;;2.67;2.20;;;29.10;99.90;;;;;;5090077;28;20478;-70
2021/06/19 06:29:28;;;;;;;1.65;1.40;;;28.80;99.90;;;;;;5074866;28;20021;-69
2021/06/19 06:31:54;;;;;;;1.48;1.15;;;28.90;99.90;;;;;;5074528;28;20489;-70
2021/06/19 06:34:21;;;;;;;2.45;1.40;;;28.90;99.90;;;;;;5074451;28;20024;-69
2021/06/19 06:36:46;;;;;;;1.92;1.23;;;28.90;99.90;;;;;;5074076;28;20105;-69
2021/06/19 06:39:12;;;;;;;4.82;1.50;;;29.30;99.90;;;;;;5072765;28;20057;-69
2021/06/19 06:41:37;;;;;;;6.22;1.45;;;28.50;99.90;;;;;;5089803;28;20143;-69
2021/06/19 06:44:03;;;;;;;4.38;1.40;;;28.70;99.90;;;;;;5055544;28;20104;-69
2021/06/19 06:46:29;;;;;;;3.25;1.13;;;28.60;99.90;;;;;;5056089;28;20078;-69
2021/06/19 06:48:54;;;;;;;3.63;1.33;;;28.80;99.90;;;;;;5074221;28;20115;-69
2021/06/19 06:51:20;;;;;;;1.50;1.20;;;28.70;99.90;;;;;;5074471;28;20099;-69
2021/06/19 06:53:46;;;;;;;4.18;1.00;;;28.80;99.90;;;;;;5074437;28;20025;-69
2021/06/19 06:56:11;;;;;;;5.97;1.23;;;28.60;99.90;;;;;;5074376;28;20105;-70
2021/06/19 06:58:37;;;;;;;3.30;1.00;;;28.30;99.90;;;;;;5072567;28;20028;-69
2021/06/19 07:01:02;;;;;;;2.75;1.45;;;27.90;99.90;;;;;;5090240;28;20070;-69
2021/06/19 07:03:28;;;;;;;2.97;1.05;;;27.90;99.90;;;;;;5074198;28;20024;-70
2021/06/19 07:05:53;;;;;;;2.42;1.10;;;28.00;99.90;;;;;;5073987;28;20066;-70
2021/06/19 07:08:19;;;;;;;2.38;1.30;;;28.20;99.90;;;;;;5055667;28;20363;-69
2021/06/19 07:10:45;;;;;;;5.35;1.15;;;28.20;99.90;;;;;;5074076;28;20093;-69
2021/06/19 07:13:10;;;;;;;1.92;1.10;;;28.20;99.90;;;;;;5055362;28;20029;-69
2021/06/19 07:15:36;;;;;;;3.20;1.30;;;27.80;99.90;;;;;;5089278;28;20028;-69
2021/06/19 07:18:03;;;;;;;7.63;1.73;;;28.10;99.90;;;;;;5072633;28;20029;-70
2021/06/19 07:20:29;;;;;;;3.42;1.30;;;29.00;99.90;;;;;;5089254;28;20469;-70
2021/06/19 07:22:54;;;;;;;5.20;1.40;;;28.90;99.90;;;;;;5055487;28;20028;-69
2021/06/19 07:25:20;;;;;;;4.55;1.27;;;29.20;99.90;;;;;;5072443;28;20031;-70
2021/06/19 07:27:53;;;;;;;4.35;1.55;;;29.10;99.90;;;;;;5073752;28;20446;-70
2021/06/19 07:30:20;;;;;;;2.50;1.13;;;29.10;99.30;;;;;;5072484;28;20082;-70
2021/06/19 07:32:45;;;;;;;1.67;1.17;;;29.30;99.40;;;;;;5073806;28;20025;-70
2021/06/19 07:35:11;;;;;;;2.25;1.20;;;29.10;99.30;;;;;;5072457;28;20048;-70
2021/06/19 07:37:37;;;;;;;2.72;1.30;;;29.50;99.60;;;;;;5088625;28;20048;-70
2021/06/19 07:40:04;;;;;;;8.98;3.85;;;29.20;99.70;;;;;;5073575;28;20035;-70
2021/06/19 07:42:31;;;;;;;1.48;1.20;;;29.20;99.90;;;;;;5089681;28;20043;-70
2021/06/19 07:44:56;;;;;;;2.35;1.30;;;28.80;99.90;;;;;;5073580;28;20035;-70
2021/06/19 07:47:22;;;;;;;2.08;1.27;;;29.10;99.90;;;;;;5072307;28;20469;-70
2021/06/19 07:49:48;;;;;;;3.67;1.40;;;29.90;99.70;;;;;;5088751;28;20016;-70
2021/06/19 07:52:13;;;;;;;5.13;1.48;;;30.10;98.30;;;;;;5071960;28;20052;-70
2021/06/19 07:54:39;;;;;;;1.90;1.15;;;30.40;98.20;;;;;;5090685;28;20539;-70
2021/06/19 07:57:07;;;;;;;2.78;1.17;;;30.50;97.20;;;;;;5077781;28;20027;-70
2021/06/19 07:59:34;;;;;;;2.67;1.20;;;30.30;97.20;;;;;;5093264;28;20021;-70
2021/06/19 08:02:00;;;;;;;1.35;1.25;;;30.30;97.00;;;;;;5076488;28;20111;-71
2021/06/19 08:04:26;;;;;;;2.45;1.15;;;30.30;96.70;;;;;;5076259;28;20021;-71
2021/06/19 08:06:52;;;;;;;3.85;1.20;;;30.60;96.80;;;;;;5093600;28;20028;-70
2021/06/19 08:09:17;;;;;;;1.63;1.40;;;30.60;96.50;;;;;;5059288;28;20029;-70
2021/06/19 08:11:43;;;;;;;1.52;1.35;;;30.90;97.00;;;;;;5092687;28;20048;-71
2021/06/19 08:14:08;;;;;;;3.05;1.40;;;31.30;95.60;;;;;;5076073;28;20029;-70
2021/06/19 08:16:34;;;;;;;3.05;1.50;;;31.20;95.80;;;;;;5077539;28;20051;-70
2021/06/19 08:18:59;;;;;;;2.97;1.30;;;31.00;96.00;;;;;;5076868;28;20020;-70
2021/06/19 08:21:25;;;;;;;2.67;1.30;;;30.70;96.40;;;;;;5075932;28;20081;-70
2021/06/19 08:23:51;;;;;;;2.47;1.40;;;30.60;96.20;;;;;;5077155;28;20431;-70
2021/06/19 08:26:16;;;;;;;3.38;1.50;;;30.60;96.50;;;;;;5077032;28;20020;-70
2021/06/19 08:28:42;;;;;;;1.23;1.13;;;31.00;96.20;;;;;;5077319;28;20033;-70
2021/06/19 08:31:07;;;;;;;2.22;1.20;;;30.80;96.70;;;;;;5058751;28;20039;-70
2021/06/19 08:33:33;;;;;;;2.10;1.00;;;31.10;95.80;;;;;;5076655;28;20029;-70
2021/06/19 08:35:59;;;;;;;1.33;1.10;;;31.50;95.30;;;;;;5092326;28;20441;-71
2021/06/19 08:38:30;;;;;;;2.97;1.00;;;31.80;95.20;;;;;;5075338;28;20525;-71
2021/06/19 08:40:55;;;;;;;0.80;0.80;;;31.50;95.10;;;;;;5077023;28;20024;-70
2021/06/19 08:43:21;;;;;;;2.35;1.00;;;31.40;94.50;;;;;;5075891;28;20035;-70
2021/06/19 08:45:50;;;;;;;2.75;1.05;;;31.50;94.70;;;;;;5076566;28;20142;-71
2021/06/19 08:48:17;;;;;;;5.15;1.17;;;32.30;93.10;;;;;;5075409;28;20025;-70
2021/06/19 08:50:44;;;;;;;2.25;1.35;;;31.90;93.90;;;;;;5076791;28;20025;-70
2021/06/19 08:53:10;;;;;;;3.28;1.00;;;31.50;94.80;;;;;;5091731;28;20024;-70
2021/06/19 08:55:37;;;;;;;4.32;1.35;;;31.20;93.80;;;;;;5075474;28;20035;-70
2021/06/19 08:58:03;;;;;;;1.70;0.90;;;30.80;94.40;;;;;;5076604;28;20020;-70
2021/06/19 09:00:31;;;;;;;0.93;0.82;;;31.10;94.40;;;;;;5058674;28;20074;-71
2021/06/19 09:02:57;;;;;;;5.20;1.10;;;32.00;92.90;;;;;;5076366;28;20016;-70
2021/06/19 09:05:27;;;;;;;1.98;1.10;;;31.80;93.40;;;;;;5075734;28;20039;-71
2021/06/19 09:07:55;;;;;;;4.68;1.35;;;32.20;92.20;;;;;;5075897;28;20020;-71
2021/06/19 09:10:33;;;;;;;3.25;1.20;;;31.70;93.10;;;;;;5091650;28;20029;-70
2021/06/19 09:13:05;;;;;;;2.58;0.90;;;31.80;92.60;;;;;;5076403;28;20485;-71
2021/06/19 09:15:34;;;;;;;1.65;1.00;;;32.60;90.40;;;;;;5076375;28;20025;-71
2021/06/19 09:18:08;;;;;;;1.88;1.10;;;32.60;90.60;;;;;;5075953;28;20032;-71
2021/06/19 09:20:39;;;;;;;1.63;0.73;;;32.50;90.90;;;;;;5075741;28;20027;-71
2021/06/19 09:23:09;;;;;;;3.78;0.88;;;32.60;90.10;;;;;;5076180;28;20044;-71
2021/06/19 09:25:35;;;;;;;3.13;0.88;;;32.90;89.60;;;;;;5075812;28;20024;-71
2021/06/19 09:28:01;;;;;;;0.73;0.63;;;33.40;88.30;;;;;;5074671;28;20480;-71
2021/06/19 09:30:28;;;;;;;2.60;0.98;;;33.80;86.60;;;;;;5075776;28;20027;-71
2021/06/19 09:32:59;;;;;;;1.48;0.70;;;34.10;84.10;;;;;;5074328;28;20143;-71
2021/06/19 09:35:29;;;;;;;2.60;0.80;;;33.80;81.20;;;;;;5075445;28;20104;-71
2021/06/19 09:37:58;;;;;;;2.22;0.90;;;33.80;81.90;;;;;;5074169;28;20041;-71
2021/06/19 09:40:30;;;;;;;2.35;0.90;;;33.60;84.00;;;;;;5074486;28;20073;-71
2021/06/19 09:43:16;;;;;;;1.30;0.90;;;33.10;84.80;;;;;;5074712;28;20036;-71
2021/06/19 09:46:00;;;;;;;1.20;1.10;;;32.50;86.00;;;;;;5075063;28;20013;-70
2021/06/19 09:48:38;;;;;;;1.15;0.98;;;32.20;85.50;;;;;;5075635;28;20036;-71
2021/06/19 09:51:23;;;;;;;1.65;1.20;;;32.60;86.40;;;;;;5075415;28;20514;-71
2021/06/19 09:53:53;;;;;;;1.77;1.00;;;33.20;86.80;;;;;;5075641;28;20028;-71
2021/06/19 09:56:21;;;;;;;1.85;1.00;;;33.20;83.70;;;;;;5075560;28;20017;-71
2021/06/19 09:58:49;;;;;;;1.60;0.98;;;33.60;83.20;;;;;;5090511;28;20020;-71
2021/06/19 10:01:19;;;;;;;0.70;0.70;;;33.80;81.60;;;;;;5073786;28;20103;-71
2021/06/19 10:03:49;;;;;;;2.28;0.85;;;33.30;78.00;;;;;;5073666;28;20021;-71
2021/06/19 10:06:15;;;;;;;3.35;1.17;;;33.70;79.00;;;;;;5075381;28;20024;-71
2021/06/19 10:08:44;;;;;;;3.67;0.82;;;33.10;80.60;;;;;;5073695;28;20103;-71
2021/06/19 10:11:09;;;;;;;1.60;1.00;;;33.10;81.30;;;;;;5075293;28;20035;-71
2021/06/19 10:13:35;;;;;;;1.10;1.00;;;33.40;80.00;;;;;;5074023;28;20119;-70
2021/06/19 10:16:02;;;;;;;1.35;0.93;;;33.40;81.70;;;;;;5074050;28;20063;-71
2021/06/19 10:18:30;;;;;;;1.95;1.17;;;34.40;78.80;;;;;;5073788;28;20029;-71
2021/06/19 10:20:55;;;;;;;2.08;0.70;;;34.60;76.00;;;;;;5075225;28;20453;-71
2021/06/19 10:23:21;;;;;;;0.90;0.82;;;34.00;75.80;;;;;;5075145;28;20032;-71
2021/06/19 10:25:48;;;;;;;1.38;0.90;;;33.20;77.00;;;;;;5074748;28;20423;-71
2021/06/19 10:28:17;;;;;;;0.85;0.65;;;34.20;76.30;;;;;;5073607;28;20488;-71
2021/06/19 10:30:42;;;;;;;1.98;0.90;;;34.20;73.30;;;;;;5073657;28;20033;-71
2021/06/19 10:33:29;;;;;;;1.98;1.10;;;34.60;76.00;;;;;;5089955;28;20082;-71
2021/06/19 10:35:57;;;;;;;1.33;0.80;;;35.20;74.20;;;;;;5074866;28;20028;-71
2021/06/19 10:38:24;;;;;;;1.75;1.00;;;34.80;71.70;;;;;;5074295;28;20398;-71
2021/06/19 10:40:56;;;;;;;1.75;0.82;;;34.90;71.00;;;;;;5089864;28;20031;-70
2021/06/19 10:43:22;;;;;;;2.42;0.90;;;34.40;73.40;;;;;;5074487;28;20044;-70
2021/06/19 10:45:52;;;;;;;1.75;0.98;;;34.20;74.40;;;;;;5074787;28;20016;-70
2021/06/19 10:48:20;;;;;;;1.15;1.02;;;34.10;73.20;;;;;;5072995;28;20056;-70
2021/06/19 10:50:49;;;;;;;2.13;0.98;;;33.80;75.00;;;;;;5089683;28;20039;-70
2021/06/19 10:53:18;;;;;;;4.45;0.90;;;33.20;73.90;;;;;;5074276;28;20482;-70
2021/06/19 10:55:53;;;;;;;1.02;0.93;;;32.50;74.70;;;;;;5089559;28;20450;-70
2021/06/19 10:58:30;;;;;;;3.35;0.98;;;32.10;75.00;;;;;;5074122;28;20462;-70
2021/06/19 11:00:58;;;;;;;1.40;1.00;;;32.10;75.60;;;;;;5074144;28;20028;-70
2021/06/19 11:03:46;;;;;;;2.65;0.85;;;31.80;74.20;;;;;;5072661;28;20027;-70
2021/06/19 11:06:29;;;;;;;1.48;1.00;;;31.80;73.90;;;;;;5089382;28;20105;-70
2021/06/19 11:09:01;;;;;;;2.08;1.15;;;31.40;74.80;;;;;;5090132;28;20417;-70
2021/06/19 11:11:48;;;;;;;0.95;0.95;;;31.20;75.70;;;;;;5089362;28;20025;-70
2021/06/19 11:14:33;;;;;;;1.55;0.70;;;31.20;76.40;;;;;;5074214;28;20034;-70
2021/06/19 11:16:59;;;;;;;0.98;0.90;;;31.40;76.70;;;;;;5073721;28;20025;-70
2021/06/19 11:19:48;;;;;;;4.40;0.98;;;31.10;76.40;;;;;;5074152;28;20025;-70
2021/06/19 11:31:00;;;;;;;2.50;0.98;;;31.70;74.00;;;;;;5128040;27;20133;-69
2021/06/19 11:33:27;;;;;;;1.48;0.88;;;31.80;74.40;;;;;;5109982;28;20112;-69
2021/06/19 11:38:50;;;;;;;1.38;0.80;;;31.90;73.70;;;;;;5128070;27;20536;-69
2021/06/19 11:41:20;;;;;;;1.75;0.85;;;32.00;73.80;;;;;;5111942;28;20031;-69
2021/06/19 11:43:46;;;;;;;3.70;0.80;;;31.90;72.00;;;;;;5110431;28;20103;-69
2021/06/19 11:46:12;;;;;;;1.20;1.00;;;31.70;72.60;;;;;;5110597;28;20397;-69
2021/06/19 11:48:56;;;;;;;1.27;1.10;;;31.60;72.90;;;;;;5110263;28;20122;-69
2021/06/19 11:51:24;;;;;;;1.02;0.80;;;32.00;73.60;;;;;;5111441;28;20095;-69
2021/06/19 11:53:50;;;;;;;1.90;1.20;;;32.10;73.20;;;;;;5111398;28;20108;-69
2021/06/19 11:56:21;;;;;;;2.45;0.98;;;32.30;72.20;;;;;;5109736;28;20059;-69
2021/06/19 11:58:56;;;;;;;1.15;1.08;;;32.00;72.20;;;;;;5110236;28;20031;-69
2021/06/19 12:01:32;;;;;;;1.45;1.00;;;32.40;72.10;;;;;;5111309;28;20020;-69
2021/06/19 12:04:00;;;;;;;1.77;1.10;;;32.50;70.40;;;;;;5111521;28;20070;-69
2021/06/19 12:06:36;;;;;;;3.10;0.98;;;32.10;72.30;;;;;;5092985;28;20020;-69
2021/06/19 12:09:04;;;;;;;1.40;1.02;;;32.00;72.60;;;;;;5109742;28;20020;-69
2021/06/19 12:11:31;;;;;;;1.02;0.93;;;32.30;72.70;;;;;;5093655;28;20356;-69
2021/06/19 12:13:57;;;;;;;2.40;1.00;;;32.60;72.50;;;;;;5109903;28;20045;-69
2021/06/19 12:16:31;;;;;;;3.78;1.23;;;32.50;70.30;;;;;;5110020;28;20054;-69
2021/06/19 12:18:59;;;;;;;2.63;0.90;;;32.10;70.20;;;;;;5110682;28;20077;-69
2021/06/19 12:21:40;;;;;;;1.05;0.95;;;32.10;71.40;;;;;;5093406;28;20024;-69
2021/06/19 12:24:27;;;;;;;1.90;0.90;;;32.20;71.80;;;;;;5111147;28;20377;-69
2021/06/19 12:27:03;;;;;;;1.25;1.05;;;32.80;70.10;;;;;;5110594;28;20376;-69
2021/06/19 12:29:34;;;;;;;1.10;1.00;;;32.20;69.40;;;;;;5109533;28;20094;-69
2021/06/19 12:32:00;;;;;;;2.53;1.10;;;32.10;68.60;;;;;;5092660;28;20445;-69
2021/06/19 12:34:28;;;;;;;1.83;1.10;;;32.10;70.80;;;;;;5108991;28;20076;-69
2021/06/19 12:36:56;;;;;;;0.90;0.90;;;32.10;69.10;;;;;;5110410;28;20043;-69
2021/06/19 12:39:22;;;;;;;0.98;0.90;;;32.10;70.10;;;;;;5109516;28;20023;-69
2021/06/19 12:41:48;;;;;;;1.88;0.90;;;32.00;71.40;;;;;;5110674;28;20012;-69
2021/06/19 12:44:14;;;;;;;1.42;1.05;;;32.30;70.30;;;;;;5108902;28;20468;-69
2021/06/19 12:46:40;;;;;;;1.55;1.13;;;32.70;70.70;;;;;;5110047;28;20039;-69
2021/06/19 12:49:07;;;;;;;3.22;1.20;;;32.60;68.50;;;;;;5102122;28;20016;-70
2021/06/19 12:51:36;;;;;;;1.77;1.00;;;32.30;71.00;;;;;;5096819;28;20032;-69
2021/06/19 12:54:24;;;;;;;4.30;1.10;;;32.10;69.30;;;;;;5096831;28;20065;-69
2021/06/19 12:57:03;;;;;;;1.00;0.90;;;32.20;71.40;;;;;;5096473;28;20421;-69